This is the latest recevied weather packets stored in our database for station/object N3TJJ-11. If no packets are shown the sender has not sent any weather packets the latest 10 day(s).
| Time | Temp. | Humidity | Pressure | Rain* | Wind** | Luminosity | Snow |
|---|---|---|---|---|---|---|---|
| 1777679033 | 12.78° C | 57% | 1009.6 hPa | 0 mm | - | - | - |
| 1777678552 | 13.33° C | 56% | 1009.6 hPa | 0 mm | - | - | - |
| 1777678433 | 13.33° C | 57% | 1009.6 hPa | 0 mm | - | - | - |
| 1777677832 | 13.33° C | 56% | 1009.4 hPa | 0 mm | - | - | - |
| 1777677233 | 13.33° C | 54% | 1009.3 hPa | 0 mm | - | - | - |
| 1777677112 | 13.33° C | 54% | 1009.2 hPa | 0 mm | - | - | - |
| 1777676633 | 13.33° C | 54% | 1009.2 hPa | 0 mm | - | - | - |
| 1777676392 | 13.89° C | 53% | 1009.2 hPa | 0 mm | - | - | - |
| 1777676033 | 13.89° C | 53% | 1009 hPa | 0 mm | - | - | - |
| 1777675672 | 14.44° C | 51% | 1009 hPa | 0 mm | - | - | - |
| 1777675433 | 15° C | 50% | 1009 hPa | 0 mm | - | - | - |
| 1777674952 | 15° C | 49% | 1009 hPa | 0 mm | - | - | - |
| 1777674833 | 15° C | 49% | 1009.1 hPa | 0 mm | - | - | - |
| 1777674233 | 15° C | 49% | 1009.1 hPa | 0 mm | - | - | - |
| 1777673633 | 15° C | 50% | 1009.2 hPa | 0 mm | - | - | - |
| 1777673512 | 15° C | 49% | 1009.1 hPa | 0 mm | - | - | - |
| 1777673033 | 15° C | 48% | 1009.1 hPa | 0 mm | - | - | - |
| 1777672792 | 15° C | 48% | 1009.1 hPa | 0 mm | - | - | - |
| 1777672433 | 15.56° C | 50% | 1009.3 hPa | 0 mm | - | - | - |
| 1777672072 | 15° C | 50% | 1009.3 hPa | 0 mm | - | - | - |
| 1777671834 | 15° C | 50% | 1009.2 hPa | 0 mm | - | - | - |
| 1777671352 | 15.56° C | 50% | 1009.4 hPa | 0 mm | - | - | - |
| 1777671233 | 15.56° C | 49% | 1009.4 hPa | 0 mm | - | - | - |
| 1777670632 | 15.56° C | 51% | 1009.5 hPa | 0 mm | - | - | - |
| 1777670034 | 15.56° C | 47% | 1009.4 hPa | 0 mm | - | - | - |
* Rain latest hour (hover to see other rain measurements)
** Current wind speed in m/s (hover to see current wind gust speed)